sensor_id;sensor_type;location;lat;lon;timestamp;temperature;humidity
41944;DHT22;27636;52.610;13.244;2022-09-01T00:00:51;14.80;99.90
41944;DHT22;27636;52.610;13.244;2022-09-01T00:05:54;14.80;99.90
41944;DHT22;27636;52.610;13.244;2022-09-01T00:10:59;14.80;99.90
41944;DHT22;27636;52.610;13.244;2022-09-01T00:16:03;14.60;99.90
41944;DHT22;27636;52.610;13.244;2022-09-01T00:21:08;14.50;99.90
41944;DHT22;27636;52.610;13.244;2022-09-01T00:26:11;14.50;99.90
41944;DHT22;27636;52.610;13.244;2022-09-01T00:31:16;14.40;99.90
41944;DHT22;27636;52.610;13.244;2022-09-01T00:36:22;14.30;99.90
41944;DHT22;27636;52.610;13.244;2022-09-01T00:41:29;14.40;99.90
41944;DHT22;27636;52.610;13.244;2022-09-01T00:46:37;14.40;99.90
41944;DHT22;27636;52.610;13.244;2022-09-01T00:51:55;14.40;99.90
41944;DHT22;27636;52.610;13.244;2022-09-01T00:56:59;14.40;99.90
41944;DHT22;27636;52.610;13.244;2022-09-01T01:02:05;14.20;99.90
41944;DHT22;27636;52.610;13.244;2022-09-01T01:07:09;14.10;99.90
41944;DHT22;27636;52.610;13.244;2022-09-01T01:12:13;14.20;99.90
41944;DHT22;27636;52.610;13.244;2022-09-01T01:47:10;14.00;99.90
41944;DHT22;27636;52.610;13.244;2022-09-01T01:52:15;13.80;99.90
41944;DHT22;27636;52.610;13.244;2022-09-01T01:57:20;13.80;99.90
41944;DHT22;27636;52.610;13.244;2022-09-01T02:02:25;13.70;99.90
41944;DHT22;27636;52.610;13.244;2022-09-01T02:07:29;13.60;99.90
41944;DHT22;27636;52.610;13.244;2022-09-01T02:12:36;13.40;99.90
41944;DHT22;27636;52.610;13.244;2022-09-01T02:17:41;13.30;99.90
41944;DHT22;27636;52.610;13.244;2022-09-01T02:22:47;13.10;99.90
41944;DHT22;27636;52.610;13.244;2022-09-01T02:27:53;12.90;99.90
41944;DHT22;27636;52.610;13.244;2022-09-01T02:32:59;12.70;99.90
41944;DHT22;27636;52.610;13.244;2022-09-01T02:38:02;12.60;99.90
41944;DHT22;27636;52.610;13.244;2022-09-01T02:43:06;12.60;99.90
41944;DHT22;27636;52.610;13.244;2022-09-01T02:48:12;12.40;99.90
41944;DHT22;27636;52.610;13.244;2022-09-01T02:53:15;12.20;99.90
41944;DHT22;27636;52.610;13.244;2022-09-01T02:58:20;12.00;99.90
41944;DHT22;27636;52.610;13.244;2022-09-01T03:03:29;11.80;99.90
41944;DHT22;27636;52.610;13.244;2022-09-01T03:08:33;11.70;99.90
41944;DHT22;27636;52.610;13.244;2022-09-01T03:13:40;11.60;99.90
41944;DHT22;27636;52.610;13.244;2022-09-01T03:18:45;11.40;99.90
41944;DHT22;27636;52.610;13.244;2022-09-01T03:23:49;11.30;99.90
41944;DHT22;27636;52.610;13.244;2022-09-01T03:28:53;11.20;99.90
41944;DHT22;27636;52.610;13.244;2022-09-01T03:33:59;11.10;99.90
41944;DHT22;27636;52.610;13.244;2022-09-01T03:39:06;11.00;99.90
41944;DHT22;27636;52.610;13.244;2022-09-01T03:44:18;11.00;99.90
41944;DHT22;27636;52.610;13.244;2022-09-01T03:49:23;10.80;99.90
41944;DHT22;27636;52.610;13.244;2022-09-01T03:54:32;10.70;99.90
41944;DHT22;27636;52.610;13.244;2022-09-01T03:59:36;10.70;99.90
41944;DHT22;27636;52.610;13.244;2022-09-01T04:04:46;10.70;99.90
41944;DHT22;27636;52.610;13.244;2022-09-01T04:09:49;10.60;99.90
41944;DHT22;27636;52.610;13.244;2022-09-01T04:14:54;10.60;99.90
41944;DHT22;27636;52.610;13.244;2022-09-01T04:20:01;10.60;99.90
41944;DHT22;27636;52.610;13.244;2022-09-01T04:25:10;10.50;99.90
41944;DHT22;27636;52.610;13.244;2022-09-01T04:30:15;10.50;99.90
41944;DHT22;27636;52.610;13.244;2022-09-01T04:35:23;10.50;99.90
41944;DHT22;27636;52.610;13.244;2022-09-01T04:40:40;10.60;99.90
41944;DHT22;27636;52.610;13.244;2022-09-01T04:45:45;10.70;99.90
41944;DHT22;27636;52.610;13.244;2022-09-01T04:50:50;10.80;99.90
41944;DHT22;27636;52.610;13.244;2022-09-01T04:56:02;10.80;99.90
41944;DHT22;27636;52.610;13.244;2022-09-01T05:01:14;10.90;99.90
41944;DHT22;27636;52.610;13.244;2022-09-01T05:06:19;10.90;99.90
41944;DHT22;27636;52.610;13.244;2022-09-01T05:11:27;10.90;99.90
41944;DHT22;27636;52.610;13.244;2022-09-01T05:16:38;11.10;99.90
41944;DHT22;27636;52.610;13.244;2022-09-01T05:21:48;11.20;99.90
41944;DHT22;27636;52.610;13.244;2022-09-01T05:26:51;11.30;99.90
41944;DHT22;27636;52.610;13.244;2022-09-01T05:31:55;11.90;99.90
41944;DHT22;27636;52.610;13.244;2022-09-01T05:37:00;12.00;99.90
41944;DHT22;27636;52.610;13.244;2022-09-01T05:42:04;12.20;99.90
41944;DHT22;27636;52.610;13.244;2022-09-01T05:47:11;12.60;99.90
41944;DHT22;27636;52.610;13.244;2022-09-01T05:52:25;12.80;99.90
41944;DHT22;27636;52.610;13.244;2022-09-01T05:57:29;13.30;99.90
41944;DHT22;27636;52.610;13.244;2022-09-01T06:02:38;13.70;99.90
41944;DHT22;27636;52.610;13.244;2022-09-01T06:07:43;15.60;99.90
41944;DHT22;27636;52.610;13.244;2022-09-01T06:12:48;16.50;99.90
41944;DHT22;27636;52.610;13.244;2022-09-01T06:17:56;17.80;99.90
41944;DHT22;27636;52.610;13.244;2022-09-01T06:23:01;19.00;99.90
41944;DHT22;27636;52.610;13.244;2022-09-01T06:28:05;20.40;99.90
41944;DHT22;27636;52.610;13.244;2022-09-01T06:33:11;20.40;99.20
41944;DHT22;27636;52.610;13.244;2022-09-01T06:38:19;21.10;96.60
41944;DHT22;27636;52.610;13.244;2022-09-01T06:43:24;21.10;95.30
41944;DHT22;27636;52.610;13.244;2022-09-01T06:48:27;20.40;96.40
41944;DHT22;27636;52.610;13.244;2022-09-01T06:53:45;20.80;96.40
41944;DHT22;27636;52.610;13.244;2022-09-01T06:58:55;22.00;92.80
41944;DHT22;27636;52.610;13.244;2022-09-01T07:03:58;22.60;91.10
41944;DHT22;27636;52.610;13.244;2022-09-01T07:09:20;23.40;90.40
41944;DHT22;27636;52.610;13.244;2022-09-01T07:14:51;24.20;83.50
41944;DHT22;27636;52.610;13.244;2022-09-01T07:20:19;22.40;86.40
41944;DHT22;27636;52.610;13.244;2022-09-01T07:25:30;22.60;85.10
41944;DHT22;27636;52.610;13.244;2022-09-01T07:31:00;22.60;90.20
41944;DHT22;27636;52.610;13.244;2022-09-01T07:36:25;24.20;81.60
41944;DHT22;27636;52.610;13.244;2022-09-01T07:41:31;23.90;82.40
41944;DHT22;27636;52.610;13.244;2022-09-01T07:47:23;23.90;82.40
41944;DHT22;27636;52.610;13.244;2022-09-01T07:52:46;24.10;80.30
41944;DHT22;27636;52.610;13.244;2022-09-01T07:57:53;24.30;77.40
41944;DHT22;27636;52.610;13.244;2022-09-01T08:02:57;23.30;83.00
41944;DHT22;27636;52.610;13.244;2022-09-01T08:08:00;23.50;82.00
41944;DHT22;27636;52.610;13.244;2022-09-01T08:13:09;23.20;78.40
41944;DHT22;27636;52.610;13.244;2022-09-01T08:18:18;23.70;75.70
41944;DHT22;27636;52.610;13.244;2022-09-01T08:23:22;23.30;81.80
41944;DHT22;27636;52.610;13.244;2022-09-01T08:28:30;25.10;77.00
41944;DHT22;27636;52.610;13.244;2022-09-01T08:33:34;24.30;74.60
41944;DHT22;27636;52.610;13.244;2022-09-01T08:38:39;25.10;71.20
41944;DHT22;27636;52.610;13.244;2022-09-01T08:43:53;24.60;71.30
41944;DHT22;27636;52.610;13.244;2022-09-01T08:49:04;23.50;73.90
41944;DHT22;27636;52.610;13.244;2022-09-01T08:54:57;24.30;75.90
41944;DHT22;27636;52.610;13.244;2022-09-01T09:00:06;24.70;71.00
41944;DHT22;27636;52.610;13.244;2022-09-01T09:05:26;24.10;72.20
41944;DHT22;27636;52.610;13.244;2022-09-01T09:10:34;22.80;75.50
41944;DHT22;27636;52.610;13.244;2022-09-01T09:15:43;24.30;71.10
41944;DHT22;27636;52.610;13.244;2022-09-01T09:20:50;23.20;72.90
41944;DHT22;27636;52.610;13.244;2022-09-01T09:25:54;21.70;75.60
41944;DHT22;27636;52.610;13.244;2022-09-01T09:31:26;22.10;76.00
41944;DHT22;27636;52.610;13.244;2022-09-01T09:36:33;22.70;71.80
41944;DHT22;27636;52.610;13.244;2022-09-01T09:41:39;23.30;67.50
41944;DHT22;27636;52.610;13.244;2022-09-01T09:46:45;24.40;65.50
41944;DHT22;27636;52.610;13.244;2022-09-01T09:51:52;24.20;63.70
41944;DHT22;27636;52.610;13.244;2022-09-01T09:57:08;24.90;68.10
41944;DHT22;27636;52.610;13.244;2022-09-01T10:02:32;26.10;61.50
41944;DHT22;27636;52.610;13.244;2022-09-01T10:07:36;24.90;62.70
41944;DHT22;27636;52.610;13.244;2022-09-01T10:12:39;25.60;58.10
41944;DHT22;27636;52.610;13.244;2022-09-01T10:17:44;25.70;59.80
41944;DHT22;27636;52.610;13.244;2022-09-01T10:22:49;25.40;58.50
41944;DHT22;27636;52.610;13.244;2022-09-01T10:27:55;24.80;61.50
41944;DHT22;27636;52.610;13.244;2022-09-01T10:33:02;25.30;60.20
41944;DHT22;27636;52.610;13.244;2022-09-01T10:38:24;25.70;61.40
41944;DHT22;27636;52.610;13.244;2022-09-01T10:43:37;24.20;59.60
41944;DHT22;27636;52.610;13.244;2022-09-01T10:48:46;22.90;64.70
41944;DHT22;27636;52.610;13.244;2022-09-01T10:53:58;22.10;65.70
41944;DHT22;27636;52.610;13.244;2022-09-01T10:59:07;22.50;68.90
41944;DHT22;27636;52.610;13.244;2022-09-01T11:05:11;25.40;60.00
41944;DHT22;27636;52.610;13.244;2022-09-01T11:10:21;23.60;56.90
41944;DHT22;27636;52.610;13.244;2022-09-01T11:15:37;22.70;62.00
41944;DHT22;27636;52.610;13.244;2022-09-01T11:20:43;23.60;63.10
41944;DHT22;27636;52.610;13.244;2022-09-01T11:25:48;24.80;55.10
41944;DHT22;27636;52.610;13.244;2022-09-01T11:31:20;25.10;55.90
41944;DHT22;27636;52.610;13.244;2022-09-01T11:36:29;25.70;52.00
41944;DHT22;27636;52.610;13.244;2022-09-01T11:41:45;24.70;54.80
41944;DHT22;27636;52.610;13.244;2022-09-01T11:47:02;23.70;61.10
41944;DHT22;27636;52.610;13.244;2022-09-01T11:52:14;22.50;68.10
41944;DHT22;27636;52.610;13.244;2022-09-01T11:57:25;22.80;70.20
41944;DHT22;27636;52.610;13.244;2022-09-01T12:02:31;22.10;68.50
41944;DHT22;27636;52.610;13.244;2022-09-01T12:07:42;22.00;70.40
41944;DHT22;27636;52.610;13.244;2022-09-01T12:12:46;22.20;74.20
41944;DHT22;27636;52.610;13.244;2022-09-01T12:17:51;21.50;71.90
41944;DHT22;27636;52.610;13.244;2022-09-01T12:22:56;21.70;75.50
41944;DHT22;27636;52.610;13.244;2022-09-01T12:28:01;21.30;72.20
41944;DHT22;27636;52.610;13.244;2022-09-01T12:33:05;21.80;72.80
41944;DHT22;27636;52.610;13.244;2022-09-01T12:38:29;24.00;64.30
41944;DHT22;27636;52.610;13.244;2022-09-01T12:43:36;25.40;57.30
41944;DHT22;27636;52.610;13.244;2022-09-01T12:48:41;25.50;55.40
41944;DHT22;27636;52.610;13.244;2022-09-01T12:53:52;24.40;58.40
41944;DHT22;27636;52.610;13.244;2022-09-01T12:59:05;23.40;58.90
41944;DHT22;27636;52.610;13.244;2022-09-01T13:04:27;23.00;59.60
41944;DHT22;27636;52.610;13.244;2022-09-01T13:09:33;23.00;61.00
41944;DHT22;27636;52.610;13.244;2022-09-01T13:14:37;22.50;70.00
41944;DHT22;27636;52.610;13.244;2022-09-01T13:19:40;22.60;63.90
41944;DHT22;27636;52.610;13.244;2022-09-01T13:24:45;23.60;65.60
41944;DHT22;27636;52.610;13.244;2022-09-01T13:29:48;23.50;63.00
41944;DHT22;27636;52.610;13.244;2022-09-01T13:34:52;23.50;62.00
41944;DHT22;27636;52.610;13.244;2022-09-01T13:39:58;23.50;62.20
41944;DHT22;27636;52.610;13.244;2022-09-01T13:45:01;23.70;66.10
41944;DHT22;27636;52.610;13.244;2022-09-01T13:50:05;22.80;65.20
41944;DHT22;27636;52.610;13.244;2022-09-01T13:55:16;24.50;62.90
41944;DHT22;27636;52.610;13.244;2022-09-01T14:00:21;25.10;56.70
41944;DHT22;27636;52.610;13.244;2022-09-01T14:05:28;24.50;58.70
41944;DHT22;27636;52.610;13.244;2022-09-01T14:10:37;24.70;57.30
41944;DHT22;27636;52.610;13.244;2022-09-01T14:15:41;24.90;57.10
41944;DHT22;27636;52.610;13.244;2022-09-01T14:20:46;24.70;56.60
41944;DHT22;27636;52.610;13.244;2022-09-01T14:25:52;25.70;57.30
41944;DHT22;27636;52.610;13.244;2022-09-01T14:30:56;24.20;62.30
41944;DHT22;27636;52.610;13.244;2022-09-01T14:35:59;23.40;63.70
41944;DHT22;27636;52.610;13.244;2022-09-01T14:41:05;23.30;64.00
41944;DHT22;27636;52.610;13.244;2022-09-01T14:46:09;22.50;66.30
41944;DHT22;27636;52.610;13.244;2022-09-01T14:51:19;21.30;68.90
41944;DHT22;27636;52.610;13.244;2022-09-01T14:56:25;21.20;68.20
41944;DHT22;27636;52.610;13.244;2022-09-01T15:01:29;21.10;71.70
41944;DHT22;27636;52.610;13.244;2022-09-01T15:06:38;21.20;68.50
41944;DHT22;27636;52.610;13.244;2022-09-01T15:11:43;21.50;69.10
41944;DHT22;27636;52.610;13.244;2022-09-01T15:16:47;21.90;73.70
41944;DHT22;27636;52.610;13.244;2022-09-01T15:21:51;23.00;69.70
41944;DHT22;27636;52.610;13.244;2022-09-01T15:26:55;23.00;68.90
41944;DHT22;27636;52.610;13.244;2022-09-01T15:31:59;23.30;67.50
41944;DHT22;27636;52.610;13.244;2022-09-01T15:37:03;23.30;67.40
41944;DHT22;27636;52.610;13.244;2022-09-01T15:42:08;23.50;66.00
41944;DHT22;27636;52.610;13.244;2022-09-01T15:47:11;23.80;64.60
41944;DHT22;27636;52.610;13.244;2022-09-01T15:52:15;22.70;64.50
41944;DHT22;27636;52.610;13.244;2022-09-01T15:57:20;22.40;63.40
41944;DHT22;27636;52.610;13.244;2022-09-01T16:02:23;22.10;66.40
41944;DHT22;27636;52.610;13.244;2022-09-01T16:07:29;22.00;66.40
41944;DHT22;27636;52.610;13.244;2022-09-01T16:12:34;21.20;70.20
41944;DHT22;27636;52.610;13.244;2022-09-01T16:17:51;21.00;70.30
41944;DHT22;27636;52.610;13.244;2022-09-01T16:23:09;20.60;73.10
41944;DHT22;27636;52.610;13.244;2022-09-01T16:28:23;20.40;75.20
41944;DHT22;27636;52.610;13.244;2022-09-01T16:33:27;20.00;76.90
41944;DHT22;27636;52.610;13.244;2022-09-01T16:38:39;19.70;79.80
41944;DHT22;27636;52.610;13.244;2022-09-01T16:43:50;19.70;81.20
41944;DHT22;27636;52.610;13.244;2022-09-01T16:49:11;19.50;83.20
41944;DHT22;27636;52.610;13.244;2022-09-01T16:54:25;19.30;83.60
41944;DHT22;27636;52.610;13.244;2022-09-01T16:59:41;19.10;84.10
41944;DHT22;27636;52.610;13.244;2022-09-01T17:04:48;18.80;87.90
41944;DHT22;27636;52.610;13.244;2022-09-01T17:09:58;18.70;89.20
41944;DHT22;27636;52.610;13.244;2022-09-01T17:15:09;18.50;88.70
41944;DHT22;27636;52.610;13.244;2022-09-01T17:20:14;18.30;90.30
41944;DHT22;27636;52.610;13.244;2022-09-01T17:25:26;18.00;93.30
41944;DHT22;27636;52.610;13.244;2022-09-01T17:30:33;17.60;97.10
41944;DHT22;27636;52.610;13.244;2022-09-01T17:35:44;17.40;96.30
41944;DHT22;27636;52.610;13.244;2022-09-01T17:41:00;17.10;99.60
41944;DHT22;27636;52.610;13.244;2022-09-01T17:46:14;16.80;99.90
41944;DHT22;27636;52.610;13.244;2022-09-01T17:51:29;16.50;99.90
41944;DHT22;27636;52.610;13.244;2022-09-01T17:56:40;16.20;99.90
41944;DHT22;27636;52.610;13.244;2022-09-01T18:01:55;15.90;99.90
41944;DHT22;27636;52.610;13.244;2022-09-01T18:07:10;15.70;99.90
41944;DHT22;27636;52.610;13.244;2022-09-01T18:12:20;15.40;99.90
41944;DHT22;27636;52.610;13.244;2022-09-01T18:17:30;15.20;99.90
41944;DHT22;27636;52.610;13.244;2022-09-01T18:22:39;14.90;99.90
41944;DHT22;27636;52.610;13.244;2022-09-01T18:27:44;14.80;99.90
41944;DHT22;27636;52.610;13.244;2022-09-01T18:32:57;14.60;99.90
41944;DHT22;27636;52.610;13.244;2022-09-01T18:38:17;14.40;99.90
41944;DHT22;27636;52.610;13.244;2022-09-01T18:43:29;14.30;99.90
41944;DHT22;27636;52.610;13.244;2022-09-01T18:48:51;14.20;99.90
41944;DHT22;27636;52.610;13.244;2022-09-01T18:53:59;14.20;99.90
41944;DHT22;27636;52.610;13.244;2022-09-01T18:59:14;14.30;99.90
41944;DHT22;27636;52.610;13.244;2022-09-01T19:04:27;14.50;99.90
41944;DHT22;27636;52.610;13.244;2022-09-01T19:09:35;14.50;99.90
41944;DHT22;27636;52.610;13.244;2022-09-01T19:14:45;14.50;99.90
41944;DHT22;27636;52.610;13.244;2022-09-01T19:19:55;14.60;99.90
41944;DHT22;27636;52.610;13.244;2022-09-01T19:25:04;14.40;99.90
41944;DHT22;27636;52.610;13.244;2022-09-01T19:30:27;14.40;99.90
41944;DHT22;27636;52.610;13.244;2022-09-01T19:35:34;14.70;99.90
41944;DHT22;27636;52.610;13.244;2022-09-01T19:40:40;14.70;99.90
41944;DHT22;27636;52.610;13.244;2022-09-01T19:45:53;14.50;99.90
41944;DHT22;27636;52.610;13.244;2022-09-01T19:51:05;14.40;99.90
41944;DHT22;27636;52.610;13.244;2022-09-01T19:56:14;14.10;99.90
41944;DHT22;27636;52.610;13.244;2022-09-01T20:01:35;14.10;99.90
41944;DHT22;27636;52.610;13.244;2022-09-01T20:06:42;13.90;99.90
41944;DHT22;27636;52.610;13.244;2022-09-01T20:11:52;13.60;99.90
41944;DHT22;27636;52.610;13.244;2022-09-01T20:17:00;13.40;99.90
41944;DHT22;27636;52.610;13.244;2022-09-01T20:22:17;13.30;99.90
41944;DHT22;27636;52.610;13.244;2022-09-01T20:27:29;13.10;99.90
41944;DHT22;27636;52.610;13.244;2022-09-01T20:32:39;13.00;99.90
41944;DHT22;27636;52.610;13.244;2022-09-01T20:37:48;12.90;99.90
41944;DHT22;27636;52.610;13.244;2022-09-01T20:43:04;12.80;99.90
41944;DHT22;27636;52.610;13.244;2022-09-01T20:48:14;12.70;99.90
41944;DHT22;27636;52.610;13.244;2022-09-01T20:53:30;12.60;99.90
41944;DHT22;27636;52.610;13.244;2022-09-01T20:58:41;12.50;99.90
41944;DHT22;27636;52.610;13.244;2022-09-01T21:03:56;12.50;99.90
41944;DHT22;27636;52.610;13.244;2022-09-01T21:09:08;12.60;99.90
41944;DHT22;27636;52.610;13.244;2022-09-01T21:14:24;12.60;99.90
41944;DHT22;27636;52.610;13.244;2022-09-01T21:19:41;12.50;99.90
41944;DHT22;27636;52.610;13.244;2022-09-01T21:24:48;12.40;99.90
41944;DHT22;27636;52.610;13.244;2022-09-01T21:29:56;12.30;99.90
41944;DHT22;27636;52.610;13.244;2022-09-01T21:35:02;12.30;99.90
41944;DHT22;27636;52.610;13.244;2022-09-01T21:40:08;12.30;99.90
41944;DHT22;27636;52.610;13.244;2022-09-01T21:45:15;12.30;99.90
41944;DHT22;27636;52.610;13.244;2022-09-01T21:50:21;12.40;99.90
41944;DHT22;27636;52.610;13.244;2022-09-01T21:55:27;12.50;99.90
41944;DHT22;27636;52.610;13.244;2022-09-01T22:00:34;12.40;99.90
41944;DHT22;27636;52.610;13.244;2022-09-01T22:05:39;12.50;99.90
41944;DHT22;27636;52.610;13.244;2022-09-01T22:10:49;12.50;99.90
41944;DHT22;27636;52.610;13.244;2022-09-01T22:15:53;12.50;99.90
41944;DHT22;27636;52.610;13.244;2022-09-01T22:21:01;12.50;99.90
41944;DHT22;27636;52.610;13.244;2022-09-01T22:26:06;12.40;99.90
41944;DHT22;27636;52.610;13.244;2022-09-01T22:31:19;12.60;99.90
41944;DHT22;27636;52.610;13.244;2022-09-01T22:36:26;12.50;99.90
41944;DHT22;27636;52.610;13.244;2022-09-01T22:41:32;12.40;99.90
41944;DHT22;27636;52.610;13.244;2022-09-01T22:46:35;12.50;99.90
41944;DHT22;27636;52.610;13.244;2022-09-01T22:51:40;12.50;99.90
41944;DHT22;27636;52.610;13.244;2022-09-01T22:56:45;12.40;99.90
41944;DHT22;27636;52.610;13.244;2022-09-01T23:01:49;12.50;99.90
41944;DHT22;27636;52.610;13.244;2022-09-01T23:06:53;12.30;99.90
41944;DHT22;27636;52.610;13.244;2022-09-01T23:11:57;12.20;99.90
41944;DHT22;27636;52.610;13.244;2022-09-01T23:17:01;11.90;99.90
41944;DHT22;27636;52.610;13.244;2022-09-01T23:22:04;11.70;99.90
41944;DHT22;27636;52.610;13.244;2022-09-01T23:27:09;11.60;99.90
41944;DHT22;27636;52.610;13.244;2022-09-01T23:32:12;11.60;99.90
41944;DHT22;27636;52.610;13.244;2022-09-01T23:37:15;11.50;99.90
41944;DHT22;27636;52.610;13.244;2022-09-01T23:42:20;11.40;99.90
41944;DHT22;27636;52.610;13.244;2022-09-01T23:47:23;11.40;99.90
41944;DHT22;27636;52.610;13.244;2022-09-01T23:52:27;11.50;99.90
41944;DHT22;27636;52.610;13.244;2022-09-01T23:57:31;11.60;99.90
